sensor_id;sensor_type;location;lat;lon;timestamp;pressure;altitude;pressure_sealevel;temperature;humidity
43683;BME280;29285;52.128;21.060;2023-05-21T00:04:37;101155.68;;;17.04;100.00
43683;BME280;29285;52.128;21.060;2023-05-21T00:09:40;101155.09;;;16.94;100.00
43683;BME280;29285;52.128;21.060;2023-05-21T00:14:41;101154.80;;;16.86;100.00
43683;BME280;29285;52.128;21.060;2023-05-21T00:19:43;101157.09;;;16.79;100.00
43683;BME280;29285;52.128;21.060;2023-05-21T00:24:44;101155.10;;;16.75;100.00
43683;BME280;29285;52.128;21.060;2023-05-21T00:29:45;101148.02;;;16.71;100.00
43683;BME280;29285;52.128;21.060;2023-05-21T00:34:47;101149.95;;;16.65;100.00
43683;BME280;29285;52.128;21.060;2023-05-21T00:39:48;101157.34;;;16.58;100.00
43683;BME280;29285;52.128;21.060;2023-05-21T00:44:49;101155.19;;;16.53;100.00
43683;BME280;29285;52.128;21.060;2023-05-21T00:49:50;101161.39;;;16.50;100.00
43683;BME280;29285;52.128;21.060;2023-05-21T00:54:53;101162.37;;;16.47;100.00
43683;BME280;29285;52.128;21.060;2023-05-21T00:59:54;101159.75;;;16.40;100.00
43683;BME280;29285;52.128;21.060;2023-05-21T01:04:55;101157.43;;;16.35;100.00
43683;BME280;29285;52.128;21.060;2023-05-21T01:09:57;101163.18;;;16.30;100.00
43683;BME280;29285;52.128;21.060;2023-05-21T01:15:02;101166.73;;;16.21;100.00
43683;BME280;29285;52.128;21.060;2023-05-21T01:20:04;101163.23;;;16.14;100.00
43683;BME280;29285;52.128;21.060;2023-05-21T01:25:12;101158.73;;;16.06;100.00
43683;BME280;29285;52.128;21.060;2023-05-21T01:30:15;101157.54;;;15.97;100.00
43683;BME280;29285;52.128;21.060;2023-05-21T01:35:25;101155.55;;;15.92;100.00
43683;BME280;29285;52.128;21.060;2023-05-21T01:40:32;101153.77;;;15.86;100.00
43683;BME280;29285;52.128;21.060;2023-05-21T01:45:39;101147.05;;;15.81;100.00
43683;BME280;29285;52.128;21.060;2023-05-21T01:50:44;101152.94;;;15.77;100.00
43683;BME280;29285;52.128;21.060;2023-05-21T01:55:46;101153.70;;;15.66;100.00
43683;BME280;29285;52.128;21.060;2023-05-21T02:06:10;101157.72;;;15.53;100.00
43683;BME280;29285;52.128;21.060;2023-05-21T02:11:11;101154.41;;;15.44;100.00
43683;BME280;29285;52.128;21.060;2023-05-21T02:16:12;101153.40;;;15.35;100.00
43683;BME280;29285;52.128;21.060;2023-05-21T02:21:15;101154.79;;;15.27;100.00
43683;BME280;29285;52.128;21.060;2023-05-21T02:26:17;101147.64;;;15.19;100.00
43683;BME280;29285;52.128;21.060;2023-05-21T02:31:18;101146.16;;;15.15;100.00
43683;BME280;29285;52.128;21.060;2023-05-21T02:36:19;101145.00;;;15.12;100.00
43683;BME280;29285;52.128;21.060;2023-05-21T02:41:21;101145.59;;;15.09;100.00
43683;BME280;29285;52.128;21.060;2023-05-21T02:46:23;101140.25;;;15.05;100.00
43683;BME280;29285;52.128;21.060;2023-05-21T02:51:24;101140.65;;;15.03;100.00
43683;BME280;29285;52.128;21.060;2023-05-21T02:56:25;101138.60;;;15.01;100.00
43683;BME280;29285;52.128;21.060;2023-05-21T03:01:27;101141.41;;;15.00;100.00
43683;BME280;29285;52.128;21.060;2023-05-21T03:06:28;101140.71;;;15.00;100.00
43683;BME280;29285;52.128;21.060;2023-05-21T03:11:29;101148.75;;;15.00;100.00
43683;BME280;29285;52.128;21.060;2023-05-21T03:16:30;101143.34;;;15.00;100.00
43683;BME280;29285;52.128;21.060;2023-05-21T03:21:34;101137.20;;;15.01;100.00
43683;BME280;29285;52.128;21.060;2023-05-21T03:26:35;101135.80;;;15.02;100.00
43683;BME280;29285;52.128;21.060;2023-05-21T03:31:37;101134.69;;;15.03;100.00
43683;BME280;29285;52.128;21.060;2023-05-21T03:36:38;101130.95;;;15.07;100.00
43683;BME280;29285;52.128;21.060;2023-05-21T03:41:39;101122.60;;;15.14;100.00
43683;BME280;29285;52.128;21.060;2023-05-21T03:46:41;101120.50;;;15.21;100.00
43683;BME280;29285;52.128;21.060;2023-05-21T03:51:42;101120.97;;;15.31;100.00
43683;BME280;29285;52.128;21.060;2023-05-21T03:56:43;101121.92;;;15.43;100.00
43683;BME280;29285;52.128;21.060;2023-05-21T04:01:44;101118.55;;;15.60;100.00
43683;BME280;29285;52.128;21.060;2023-05-21T04:06:45;101119.21;;;15.76;100.00
43683;BME280;29285;52.128;21.060;2023-05-21T04:11:48;101120.35;;;15.86;100.00
43683;BME280;29285;52.128;21.060;2023-05-21T04:16:49;101117.10;;;15.97;100.00
43683;BME280;29285;52.128;21.060;2023-05-21T04:21:50;101118.06;;;16.08;100.00
43683;BME280;29285;52.128;21.060;2023-05-21T04:26:51;101116.16;;;16.14;100.00
43683;BME280;29285;52.128;21.060;2023-05-21T04:31:52;101115.45;;;16.20;100.00
43683;BME280;29285;52.128;21.060;2023-05-21T04:36:53;101107.34;;;16.23;100.00
43683;BME280;29285;52.128;21.060;2023-05-21T04:41:54;101105.58;;;16.30;100.00
43683;BME280;29285;52.128;21.060;2023-05-21T04:46:56;101103.50;;;16.35;100.00
43683;BME280;29285;52.128;21.060;2023-05-21T04:51:57;101107.88;;;16.41;100.00
43683;BME280;29285;52.128;21.060;2023-05-21T04:56:59;101105.84;;;16.52;100.00
43683;BME280;29285;52.128;21.060;2023-05-21T05:02:00;101108.12;;;16.58;100.00
43683;BME280;29285;52.128;21.060;2023-05-21T05:07:01;101106.60;;;16.62;100.00
43683;BME280;29285;52.128;21.060;2023-05-21T05:12:02;101104.84;;;16.68;100.00
43683;BME280;29285;52.128;21.060;2023-05-21T05:17:03;101103.98;;;16.79;100.00
43683;BME280;29285;52.128;21.060;2023-05-21T05:22:05;101099.55;;;16.87;100.00
43683;BME280;29285;52.128;21.060;2023-05-21T05:27:06;101097.01;;;16.96;100.00
43683;BME280;29285;52.128;21.060;2023-05-21T05:32:07;101093.33;;;17.09;100.00
43683;BME280;29285;52.128;21.060;2023-05-21T05:37:08;101096.87;;;17.19;100.00
43683;BME280;29285;52.128;21.060;2023-05-21T05:42:09;101095.02;;;17.32;100.00
43683;BME280;29285;52.128;21.060;2023-05-21T05:47:11;101090.69;;;17.42;100.00
43683;BME280;29285;52.128;21.060;2023-05-21T05:52:11;101090.30;;;17.54;100.00
43683;BME280;29285;52.128;21.060;2023-05-21T05:57:13;101085.70;;;17.66;100.00
43683;BME280;29285;52.128;21.060;2023-05-21T06:02:14;101085.50;;;17.77;100.00
43683;BME280;29285;52.128;21.060;2023-05-21T06:07:14;101087.08;;;17.87;100.00
43683;BME280;29285;52.128;21.060;2023-05-21T06:12:15;101084.58;;;17.99;100.00
43683;BME280;29285;52.128;21.060;2023-05-21T06:17:16;101088.38;;;18.11;100.00
43683;BME280;29285;52.128;21.060;2023-05-21T06:22:17;101087.80;;;18.23;100.00
43683;BME280;29285;52.128;21.060;2023-05-21T06:27:18;101086.71;;;18.43;100.00
43683;BME280;29285;52.128;21.060;2023-05-21T06:32:19;101087.00;;;18.82;100.00
43683;BME280;29285;52.128;21.060;2023-05-21T06:37:21;101085.52;;;18.94;100.00
43683;BME280;29285;52.128;21.060;2023-05-21T06:42:22;101086.71;;;18.99;100.00
43683;BME280;29285;52.128;21.060;2023-05-21T06:47:22;101084.66;;;19.07;100.00
43683;BME280;29285;52.128;21.060;2023-05-21T06:52:24;101077.73;;;19.18;100.00
43683;BME280;29285;52.128;21.060;2023-05-21T06:57:26;101073.23;;;19.29;100.00
43683;BME280;29285;52.128;21.060;2023-05-21T07:02:27;101066.24;;;19.54;100.00
43683;BME280;29285;52.128;21.060;2023-05-21T07:07:28;101061.78;;;19.72;100.00
43683;BME280;29285;52.128;21.060;2023-05-21T07:12:29;101058.83;;;19.84;100.00
43683;BME280;29285;52.128;21.060;2023-05-21T07:17:30;101055.98;;;20.01;100.00
43683;BME280;29285;52.128;21.060;2023-05-21T07:22:31;101051.53;;;20.14;100.00
43683;BME280;29285;52.128;21.060;2023-05-21T07:27:32;101051.20;;;20.29;100.00
43683;BME280;29285;52.128;21.060;2023-05-21T07:32:33;101052.77;;;20.49;100.00
43683;BME280;29285;52.128;21.060;2023-05-21T07:37:34;101049.00;;;20.66;100.00
43683;BME280;29285;52.128;21.060;2023-05-21T07:42:36;101045.58;;;20.75;100.00
43683;BME280;29285;52.128;21.060;2023-05-21T07:47:37;101046.06;;;20.88;100.00
43683;BME280;29285;52.128;21.060;2023-05-21T07:52:38;101044.52;;;21.02;100.00
43683;BME280;29285;52.128;21.060;2023-05-21T07:57:39;101044.88;;;21.12;100.00
43683;BME280;29285;52.128;21.060;2023-05-21T08:02:41;101047.30;;;21.31;100.00
43683;BME280;29285;52.128;21.060;2023-05-21T08:07:42;101047.15;;;21.45;100.00
43683;BME280;29285;52.128;21.060;2023-05-21T08:12:43;101038.44;;;21.57;100.00
43683;BME280;29285;52.128;21.060;2023-05-21T08:17:44;101035.70;;;21.62;100.00
43683;BME280;29285;52.128;21.060;2023-05-21T08:22:46;101039.08;;;21.65;100.00
43683;BME280;29285;52.128;21.060;2023-05-21T08:27:48;101039.77;;;21.69;100.00
43683;BME280;29285;52.128;21.060;2023-05-21T08:32:49;101028.55;;;21.71;100.00
43683;BME280;29285;52.128;21.060;2023-05-21T08:37:50;101025.41;;;21.74;100.00
43683;BME280;29285;52.128;21.060;2023-05-21T08:42:52;101023.91;;;21.79;100.00
43683;BME280;29285;52.128;21.060;2023-05-21T08:47:57;101025.07;;;21.88;100.00
43683;BME280;29285;52.128;21.060;2023-05-21T08:52:59;101021.75;;;21.97;100.00
43683;BME280;29285;52.128;21.060;2023-05-21T08:58:02;101025.96;;;21.97;100.00
43683;BME280;29285;52.128;21.060;2023-05-21T09:03:04;101027.08;;;22.00;100.00
43683;BME280;29285;52.128;21.060;2023-05-21T09:13:19;101027.06;;;22.10;100.00
43683;BME280;29285;52.128;21.060;2023-05-21T09:18:20;101029.30;;;22.15;100.00
43683;BME280;29285;52.128;21.060;2023-05-21T09:23:21;101022.63;;;22.17;100.00
43683;BME280;29285;52.128;21.060;2023-05-21T09:28:23;101021.56;;;22.24;100.00
43683;BME280;29285;52.128;21.060;2023-05-21T09:33:25;101019.39;;;22.35;100.00
43683;BME280;29285;52.128;21.060;2023-05-21T09:38:27;101015.05;;;22.43;100.00
43683;BME280;29285;52.128;21.060;2023-05-21T09:43:29;101004.97;;;22.46;100.00
43683;BME280;29285;52.128;21.060;2023-05-21T09:48:38;101005.54;;;22.48;100.00
43683;BME280;29285;52.128;21.060;2023-05-21T09:53:50;100997.67;;;22.50;100.00
43683;BME280;29285;52.128;21.060;2023-05-21T09:58:55;101000.52;;;22.54;100.00
43683;BME280;29285;52.128;21.060;2023-05-21T10:04:00;100998.02;;;22.57;100.00
43683;BME280;29285;52.128;21.060;2023-05-21T10:09:06;100998.15;;;22.65;100.00
43683;BME280;29285;52.128;21.060;2023-05-21T10:14:16;100998.08;;;22.69;100.00
43683;BME280;29285;52.128;21.060;2023-05-21T10:19:21;100994.66;;;22.73;100.00
43683;BME280;29285;52.128;21.060;2023-05-21T10:24:22;100990.71;;;22.77;100.00
43683;BME280;29285;52.128;21.060;2023-05-21T10:29:24;100994.98;;;22.80;100.00
43683;BME280;29285;52.128;21.060;2023-05-21T10:34:27;100993.17;;;22.87;100.00
43683;BME280;29285;52.128;21.060;2023-05-21T10:39:28;100987.27;;;22.94;100.00
43683;BME280;29285;52.128;21.060;2023-05-21T10:44:56;100990.56;;;23.07;100.00
43683;BME280;29285;52.128;21.060;2023-05-21T11:00:51;100979.67;;;23.43;100.00
43683;BME280;29285;52.128;21.060;2023-05-21T11:05:56;100974.24;;;23.54;100.00
43683;BME280;29285;52.128;21.060;2023-05-21T11:10:57;100971.98;;;23.65;100.00
43683;BME280;29285;52.128;21.060;2023-05-21T11:21:05;100954.31;;;23.99;100.00
43683;BME280;29285;52.128;21.060;2023-05-21T11:26:06;100956.58;;;24.02;100.00
43683;BME280;29285;52.128;21.060;2023-05-21T11:31:26;100949.02;;;23.90;100.00
43683;BME280;29285;52.128;21.060;2023-05-21T11:36:27;100946.08;;;23.86;100.00
43683;BME280;29285;52.128;21.060;2023-05-21T11:41:29;100941.89;;;24.02;100.00
43683;BME280;29285;52.128;21.060;2023-05-21T11:46:30;100940.38;;;24.06;100.00
43683;BME280;29285;52.128;21.060;2023-05-21T11:51:35;100941.87;;;24.02;100.00
43683;BME280;29285;52.128;21.060;2023-05-21T11:56:37;100943.55;;;23.98;100.00
43683;BME280;29285;52.128;21.060;2023-05-21T12:01:42;100933.54;;;24.23;100.00
43683;BME280;29285;52.128;21.060;2023-05-21T12:06:44;100944.33;;;24.39;100.00
43683;BME280;29285;52.128;21.060;2023-05-21T12:11:45;100941.70;;;24.26;100.00
43683;BME280;29285;52.128;21.060;2023-05-21T12:16:46;100936.35;;;24.45;100.00
43683;BME280;29285;52.128;21.060;2023-05-21T12:21:47;100936.98;;;24.65;100.00
43683;BME280;29285;52.128;21.060;2023-05-21T12:26:48;100930.15;;;24.97;100.00
43683;BME280;29285;52.128;21.060;2023-05-21T12:31:51;100932.88;;;25.19;100.00
43683;BME280;29285;52.128;21.060;2023-05-21T12:36:52;100926.38;;;25.44;100.00
43683;BME280;29285;52.128;21.060;2023-05-21T12:41:53;100925.90;;;25.77;100.00
43683;BME280;29285;52.128;21.060;2023-05-21T12:46:55;100923.75;;;26.00;100.00
43683;BME280;29285;52.128;21.060;2023-05-21T12:51:57;100920.80;;;26.22;100.00
43683;BME280;29285;52.128;21.060;2023-05-21T12:57:08;100918.61;;;26.32;100.00
43683;BME280;29285;52.128;21.060;2023-05-21T13:02:13;100916.00;;;26.44;100.00
43683;BME280;29285;52.128;21.060;2023-05-21T13:07:15;100911.69;;;26.40;100.00
43683;BME280;29285;52.128;21.060;2023-05-21T13:12:16;100908.33;;;26.27;100.00
43683;BME280;29285;52.128;21.060;2023-05-21T13:17:18;100905.38;;;26.31;100.00
43683;BME280;29285;52.128;21.060;2023-05-21T13:22:19;100905.20;;;26.26;100.00
43683;BME280;29285;52.128;21.060;2023-05-21T13:27:20;100899.23;;;26.12;100.00
43683;BME280;29285;52.128;21.060;2023-05-21T13:32:21;100893.73;;;26.22;100.00
43683;BME280;29285;52.128;21.060;2023-05-21T13:37:22;100896.38;;;26.44;100.00
43683;BME280;29285;52.128;21.060;2023-05-21T13:42:23;100897.08;;;26.71;100.00
43683;BME280;29285;52.128;21.060;2023-05-21T13:47:24;100891.46;;;26.96;100.00
43683;BME280;29285;52.128;21.060;2023-05-21T13:52:26;100888.55;;;27.12;100.00
43683;BME280;29285;52.128;21.060;2023-05-21T13:57:27;100887.43;;;26.93;100.00
43683;BME280;29285;52.128;21.060;2023-05-21T14:02:30;100880.38;;;26.99;100.00
43683;BME280;29285;52.128;21.060;2023-05-21T14:07:31;100880.98;;;27.31;100.00
43683;BME280;29285;52.128;21.060;2023-05-21T14:12:33;100883.38;;;27.50;100.00
43683;BME280;29285;52.128;21.060;2023-05-21T14:17:34;100883.73;;;27.53;100.00
43683;BME280;29285;52.128;21.060;2023-05-21T14:22:36;100880.81;;;27.70;100.00
43683;BME280;29285;52.128;21.060;2023-05-21T14:27:38;100880.42;;;27.97;100.00
43683;BME280;29285;52.128;21.060;2023-05-21T14:32:39;100880.82;;;27.76;100.00
43683;BME280;29285;52.128;21.060;2023-05-21T14:37:40;100875.13;;;27.68;100.00
43683;BME280;29285;52.128;21.060;2023-05-21T14:42:41;100871.22;;;27.81;100.00
43683;BME280;29285;52.128;21.060;2023-05-21T14:47:42;100868.56;;;28.07;100.00
43683;BME280;29285;52.128;21.060;2023-05-21T14:52:43;100866.85;;;28.28;100.00
43683;BME280;29285;52.128;21.060;2023-05-21T14:57:44;100865.30;;;28.43;100.00
43683;BME280;29285;52.128;21.060;2023-05-21T15:02:45;100860.40;;;28.35;100.00
43683;BME280;29285;52.128;21.060;2023-05-21T15:07:47;100855.62;;;28.56;100.00
43683;BME280;29285;52.128;21.060;2023-05-21T15:12:48;100852.65;;;28.75;100.00
43683;BME280;29285;52.128;21.060;2023-05-21T15:17:49;100849.21;;;28.90;100.00
43683;BME280;29285;52.128;21.060;2023-05-21T15:22:51;100848.07;;;28.91;100.00
43683;BME280;29285;52.128;21.060;2023-05-21T15:27:52;100846.11;;;28.95;100.00
43683;BME280;29285;52.128;21.060;2023-05-21T15:32:53;100847.64;;;28.97;100.00
43683;BME280;29285;52.128;21.060;2023-05-21T15:37:54;100846.52;;;28.97;100.00
43683;BME280;29285;52.128;21.060;2023-05-21T15:42:56;100841.27;;;29.10;100.00
43683;BME280;29285;52.128;21.060;2023-05-21T15:47:57;100843.40;;;29.23;100.00
43683;BME280;29285;52.128;21.060;2023-05-21T15:52:58;100841.28;;;29.31;100.00
43683;BME280;29285;52.128;21.060;2023-05-21T15:57:59;100842.77;;;29.18;100.00
43683;BME280;29285;52.128;21.060;2023-05-21T16:03:01;100841.84;;;29.10;100.00
43683;BME280;29285;52.128;21.060;2023-05-21T16:08:02;100839.90;;;28.90;100.00
43683;BME280;29285;52.128;21.060;2023-05-21T16:13:04;100841.81;;;28.76;100.00
43683;BME280;29285;52.128;21.060;2023-05-21T16:18:05;100841.56;;;28.83;100.00
43683;BME280;29285;52.128;21.060;2023-05-21T16:23:08;100841.66;;;28.84;100.00
43683;BME280;29285;52.128;21.060;2023-05-21T16:28:09;100841.36;;;29.17;100.00
43683;BME280;29285;52.128;21.060;2023-05-21T16:33:12;100839.90;;;29.40;100.00
43683;BME280;29285;52.128;21.060;2023-05-21T16:38:13;100838.02;;;29.45;100.00
43683;BME280;29285;52.128;21.060;2023-05-21T16:43:15;100838.95;;;29.49;100.00
43683;BME280;29285;52.128;21.060;2023-05-21T16:48:16;100845.31;;;29.58;99.95
43683;BME280;29285;52.128;21.060;2023-05-21T16:53:17;100848.05;;;29.60;99.32
43683;BME280;29285;52.128;21.060;2023-05-21T16:58:18;100850.91;;;29.54;98.70
43683;BME280;29285;52.128;21.060;2023-05-21T17:03:19;100847.25;;;29.38;97.78
43683;BME280;29285;52.128;21.060;2023-05-21T17:08:20;100847.40;;;29.11;96.67
43683;BME280;29285;52.128;21.060;2023-05-21T17:13:22;100850.27;;;28.99;96.18
43683;BME280;29285;52.128;21.060;2023-05-21T17:18:23;100848.66;;;28.93;95.92
43683;BME280;29285;52.128;21.060;2023-05-21T17:23:24;100841.41;;;28.68;95.16
43683;BME280;29285;52.128;21.060;2023-05-21T17:28:25;100843.14;;;28.30;94.37
43683;BME280;29285;52.128;21.060;2023-05-21T17:33:26;100839.96;;;27.88;93.41
43683;BME280;29285;52.128;21.060;2023-05-21T17:38:28;100845.20;;;27.24;92.30
43683;BME280;29285;52.128;21.060;2023-05-21T17:43:29;100845.19;;;26.53;91.20
43683;BME280;29285;52.128;21.060;2023-05-21T17:48:31;100848.56;;;25.93;90.27
43683;BME280;29285;52.128;21.060;2023-05-21T17:53:32;100842.95;;;25.39;89.54
43683;BME280;29285;52.128;21.060;2023-05-21T17:58:33;100838.33;;;24.87;88.74
43683;BME280;29285;52.128;21.060;2023-05-21T18:03:34;100838.71;;;24.39;88.04
43683;BME280;29285;52.128;21.060;2023-05-21T18:08:35;100836.58;;;23.95;87.48
43683;BME280;29285;52.128;21.060;2023-05-21T18:13:36;100841.17;;;23.56;86.96
43683;BME280;29285;52.128;21.060;2023-05-21T18:18:37;100837.02;;;23.19;86.38
43683;BME280;29285;52.128;21.060;2023-05-21T18:23:38;100833.11;;;22.87;86.13
43683;BME280;29285;52.128;21.060;2023-05-21T18:28:39;100837.00;;;22.56;85.68
43683;BME280;29285;52.128;21.060;2023-05-21T18:33:40;100840.06;;;22.30;85.37
43683;BME280;29285;52.128;21.060;2023-05-21T18:38:42;100849.16;;;22.04;85.03
43683;BME280;29285;52.128;21.060;2023-05-21T18:43:43;100853.27;;;21.77;84.66
43683;BME280;29285;52.128;21.060;2023-05-21T18:48:44;100851.63;;;21.55;84.44
43683;BME280;29285;52.128;21.060;2023-05-21T18:53:46;100852.48;;;21.35;84.21
43683;BME280;29285;52.128;21.060;2023-05-21T18:58:47;100850.85;;;21.16;83.91
43683;BME280;29285;52.128;21.060;2023-05-21T19:03:48;100853.38;;;20.97;83.76
43683;BME280;29285;52.128;21.060;2023-05-21T19:08:50;100854.23;;;20.83;83.62
43683;BME280;29285;52.128;21.060;2023-05-21T19:13:52;100855.91;;;20.64;83.38
43683;BME280;29285;52.128;21.060;2023-05-21T19:18:53;100855.08;;;20.49;83.33
43683;BME280;29285;52.128;21.060;2023-05-21T19:23:54;100860.98;;;20.32;83.08
43683;BME280;29285;52.128;21.060;2023-05-21T19:28:55;100861.94;;;20.12;82.79
43683;BME280;29285;52.128;21.060;2023-05-21T19:33:56;100856.42;;;19.94;82.64
43683;BME280;29285;52.128;21.060;2023-05-21T19:38:57;100856.48;;;19.82;82.58
43683;BME280;29285;52.128;21.060;2023-05-21T19:43:58;100861.65;;;19.68;82.50
43683;BME280;29285;52.128;21.060;2023-05-21T19:49:00;100859.04;;;19.56;82.41
43683;BME280;29285;52.128;21.060;2023-05-21T19:54:01;100862.33;;;19.53;82.71
43683;BME280;29285;52.128;21.060;2023-05-21T19:59:02;100858.91;;;19.43;82.67
43683;BME280;29285;52.128;21.060;2023-05-21T20:04:04;100857.90;;;19.31;82.51
43683;BME280;29285;52.128;21.060;2023-05-21T20:09:05;100857.11;;;19.20;82.56
43683;BME280;29285;52.128;21.060;2023-05-21T20:14:07;100855.36;;;19.11;82.63
43683;BME280;29285;52.128;21.060;2023-05-21T20:19:08;100846.11;;;19.02;82.64
43683;BME280;29285;52.128;21.060;2023-05-21T20:24:10;100845.70;;;18.90;82.62
43683;BME280;29285;52.128;21.060;2023-05-21T20:29:11;100855.25;;;18.76;82.57
43683;BME280;29285;52.128;21.060;2023-05-21T20:34:12;100855.79;;;18.71;82.82
43683;BME280;29285;52.128;21.060;2023-05-21T20:39:17;100856.49;;;18.68;83.01
43683;BME280;29285;52.128;21.060;2023-05-21T20:44:21;100855.92;;;18.56;82.89
43683;BME280;29285;52.128;21.060;2023-05-21T20:49:22;100858.45;;;18.41;82.68
43683;BME280;29285;52.128;21.060;2023-05-21T20:54:24;100858.13;;;18.32;82.81
43683;BME280;29285;52.128;21.060;2023-05-21T20:59:26;100866.09;;;18.26;82.87
43683;BME280;29285;52.128;21.060;2023-05-21T21:04:27;100864.30;;;18.18;82.92
43683;BME280;29285;52.128;21.060;2023-05-21T21:09:28;100857.15;;;18.07;82.91
43683;BME280;29285;52.128;21.060;2023-05-21T21:14:30;100858.73;;;17.97;82.93
43683;BME280;29285;52.128;21.060;2023-05-21T21:19:40;100855.16;;;17.90;82.99
43683;BME280;29285;52.128;21.060;2023-05-21T21:24:41;100857.28;;;17.89;83.19
43683;BME280;29285;52.128;21.060;2023-05-21T21:29:44;100852.70;;;17.80;83.24
43683;BME280;29285;52.128;21.060;2023-05-21T21:34:45;100851.73;;;17.74;83.19
43683;BME280;29285;52.128;21.060;2023-05-21T21:39:46;100846.56;;;17.71;83.24
43683;BME280;29285;52.128;21.060;2023-05-21T21:44:47;100846.52;;;17.67;83.49
43683;BME280;29285;52.128;21.060;2023-05-21T21:49:48;100846.44;;;17.55;83.38
43683;BME280;29285;52.128;21.060;2023-05-21T21:54:49;100845.00;;;17.47;83.30
43683;BME280;29285;52.128;21.060;2023-05-21T21:59:50;100846.31;;;17.40;83.30
43683;BME280;29285;52.128;21.060;2023-05-21T22:04:51;100844.20;;;17.30;83.29
43683;BME280;29285;52.128;21.060;2023-05-21T22:09:53;100848.96;;;17.24;83.40
43683;BME280;29285;52.128;21.060;2023-05-21T22:14:54;100848.41;;;17.15;83.33
43683;BME280;29285;52.128;21.060;2023-05-21T22:19:56;100848.25;;;17.04;83.25
43683;BME280;29285;52.128;21.060;2023-05-21T22:24:57;100845.80;;;16.93;83.30
43683;BME280;29285;52.128;21.060;2023-05-21T22:29:58;100839.79;;;16.85;83.41
43683;BME280;29285;52.128;21.060;2023-05-21T22:35:00;100837.06;;;16.76;83.58
43683;BME280;29285;52.128;21.060;2023-05-21T22:40:03;100835.76;;;16.69;83.62
43683;BME280;29285;52.128;21.060;2023-05-21T22:45:07;100840.92;;;16.66;83.97
43683;BME280;29285;52.128;21.060;2023-05-21T22:50:08;100842.24;;;16.63;84.16
43683;BME280;29285;52.128;21.060;2023-05-21T22:55:10;100845.89;;;16.59;84.29
43683;BME280;29285;52.128;21.060;2023-05-21T23:00:12;100842.45;;;16.57;84.56
43683;BME280;29285;52.128;21.060;2023-05-21T23:05:13;100842.23;;;16.53;84.72
43683;BME280;29285;52.128;21.060;2023-05-21T23:10:14;100845.99;;;16.50;84.81
43683;BME280;29285;52.128;21.060;2023-05-21T23:15:15;100843.88;;;16.45;84.87
43683;BME280;29285;52.128;21.060;2023-05-21T23:20:16;100842.50;;;16.39;84.96
43683;BME280;29285;52.128;21.060;2023-05-21T23:25:18;100841.39;;;16.35;85.01
43683;BME280;29285;52.128;21.060;2023-05-21T23:30:18;100837.52;;;16.25;85.00
43683;BME280;29285;52.128;21.060;2023-05-21T23:35:19;100838.99;;;16.17;85.02
43683;BME280;29285;52.128;21.060;2023-05-21T23:40:20;100840.32;;;16.08;84.96
43683;BME280;29285;52.128;21.060;2023-05-21T23:45:21;100838.74;;;15.96;84.99
43683;BME280;29285;52.128;21.060;2023-05-21T23:50:23;100835.57;;;15.91;85.10
43683;BME280;29285;52.128;21.060;2023-05-21T23:55:24;100836.45;;;15.90;85.44
